sensor_id;sensor_type;location;lat;lon;timestamp;pressure;altitude;pressure_sealevel;temperature;humidity
80502;BME280;70023;51.190;6.808;2024-01-30T00:00:52;102668.72;;;8.52;74.04
80502;BME280;70023;51.190;6.808;2024-01-30T00:05:53;102665.38;;;8.50;74.13
80502;BME280;70023;51.190;6.808;2024-01-30T00:10:54;102660.88;;;8.51;73.59
80502;BME280;70023;51.190;6.808;2024-01-30T00:16:01;102663.72;;;8.49;74.29
80502;BME280;70023;51.190;6.808;2024-01-30T00:21:04;102665.72;;;8.47;74.05
80502;BME280;70023;51.190;6.808;2024-01-30T00:26:05;102660.53;;;8.46;73.58
80502;BME280;70023;51.190;6.808;2024-01-30T00:31:06;102662.53;;;8.44;74.24
80502;BME280;70023;51.190;6.808;2024-01-30T00:36:07;102659.53;;;8.39;74.04
80502;BME280;70023;51.190;6.808;2024-01-30T00:41:09;102650.88;;;8.37;74.20
80502;BME280;70023;51.190;6.808;2024-01-30T00:46:13;102649.19;;;8.36;74.17
80502;BME280;70023;51.190;6.808;2024-01-30T00:51:14;102657.53;;;8.33;73.55
80502;BME280;70023;51.190;6.808;2024-01-30T00:56:15;102648.84;;;8.31;74.09
80502;BME280;70023;51.190;6.808;2024-01-30T01:01:18;102654.66;;;8.26;74.70
80502;BME280;70023;51.190;6.808;2024-01-30T01:06:19;102649.78;;;8.22;73.86
80502;BME280;70023;51.190;6.808;2024-01-30T01:11:20;102654.63;;;8.18;73.82
80502;BME280;70023;51.190;6.808;2024-01-30T01:16:21;102656.94;;;8.13;74.30
80502;BME280;70023;51.190;6.808;2024-01-30T01:21:22;102655.56;;;8.09;73.78
80502;BME280;70023;51.190;6.808;2024-01-30T01:26:26;102662.88;;;8.07;73.96
80502;BME280;70023;51.190;6.808;2024-01-30T01:31:27;102662.38;;;8.03;74.82
80502;BME280;70023;51.190;6.808;2024-01-30T01:36:29;102652.06;;;8.00;74.17
80502;BME280;70023;51.190;6.808;2024-01-30T01:41:31;102650.56;;;7.98;75.01
80502;BME280;70023;51.190;6.808;2024-01-30T01:46:33;102661.50;;;7.95;74.74
80502;BME280;70023;51.190;6.808;2024-01-30T01:51:37;102650.38;;;7.91;74.49
80502;BME280;70023;51.190;6.808;2024-01-30T01:56:41;102649.69;;;7.89;74.42
80502;BME280;70023;51.190;6.808;2024-01-30T02:01:43;102642.16;;;7.85;74.07
80502;BME280;70023;51.190;6.808;2024-01-30T02:06:45;102638.00;;;7.82;75.05
80502;BME280;70023;51.190;6.808;2024-01-30T02:11:47;102636.84;;;7.77;74.69
80502;BME280;70023;51.190;6.808;2024-01-30T02:16:48;102640.34;;;7.77;74.58
80502;BME280;70023;51.190;6.808;2024-01-30T02:21:49;102629.16;;;7.74;74.84
80502;BME280;70023;51.190;6.808;2024-01-30T02:26:51;102616.84;;;7.73;75.05
80502;BME280;70023;51.190;6.808;2024-01-30T02:31:55;102619.84;;;7.70;74.97
80502;BME280;70023;51.190;6.808;2024-01-30T02:36:56;102620.53;;;7.72;74.56
80502;BME280;70023;51.190;6.808;2024-01-30T02:41:57;102609.88;;;7.72;74.92
80502;BME280;70023;51.190;6.808;2024-01-30T02:46:58;102604.88;;;7.69;74.25
80502;BME280;70023;51.190;6.808;2024-01-30T02:51:59;102615.50;;;7.69;74.70
80502;BME280;70023;51.190;6.808;2024-01-30T02:57:00;102607.53;;;7.69;75.13
80502;BME280;70023;51.190;6.808;2024-01-30T03:02:01;102600.53;;;7.68;75.33
80502;BME280;70023;51.190;6.808;2024-01-30T03:07:02;102597.88;;;7.68;75.14
80502;BME280;70023;51.190;6.808;2024-01-30T03:12:03;102596.06;;;7.68;75.35
80502;BME280;70023;51.190;6.808;2024-01-30T03:17:05;102588.94;;;7.69;75.08
80502;BME280;70023;51.190;6.808;2024-01-30T03:22:06;102582.78;;;7.68;74.59
80502;BME280;70023;51.190;6.808;2024-01-30T03:27:07;102587.25;;;7.68;74.27
80502;BME280;70023;51.190;6.808;2024-01-30T03:32:09;102592.44;;;7.69;74.76
80502;BME280;70023;51.190;6.808;2024-01-30T03:37:10;102591.59;;;7.69;75.25
80502;BME280;70023;51.190;6.808;2024-01-30T03:42:11;102592.25;;;7.71;75.15
80502;BME280;70023;51.190;6.808;2024-01-30T03:47:12;102581.78;;;7.69;75.35
80502;BME280;70023;51.190;6.808;2024-01-30T03:52:13;102577.31;;;7.70;74.89
80502;BME280;70023;51.190;6.808;2024-01-30T03:57:14;102581.94;;;7.68;75.32
80502;BME280;70023;51.190;6.808;2024-01-30T04:02:15;102582.09;;;7.66;75.09
80502;BME280;70023;51.190;6.808;2024-01-30T04:07:17;102578.78;;;7.64;74.76
80502;BME280;70023;51.190;6.808;2024-01-30T04:12:18;102572.94;;;7.61;74.49
80502;BME280;70023;51.190;6.808;2024-01-30T04:17:19;102573.78;;;7.61;75.33
80502;BME280;70023;51.190;6.808;2024-01-30T04:22:20;102570.28;;;7.61;75.03
80502;BME280;70023;51.190;6.808;2024-01-30T04:27:22;102562.63;;;7.58;75.09
80502;BME280;70023;51.190;6.808;2024-01-30T04:32:23;102566.28;;;7.57;75.16
80502;BME280;70023;51.190;6.808;2024-01-30T04:37:24;102568.44;;;7.53;75.21
80502;BME280;70023;51.190;6.808;2024-01-30T04:42:27;102563.25;;;7.52;74.75
80502;BME280;70023;51.190;6.808;2024-01-30T04:47:28;102569.59;;;7.51;75.27
80502;BME280;70023;51.190;6.808;2024-01-30T04:52:30;102559.09;;;7.49;75.39
80502;BME280;70023;51.190;6.808;2024-01-30T04:57:31;102567.06;;;7.49;74.86
80502;BME280;70023;51.190;6.808;2024-01-30T05:02:33;102565.09;;;7.51;74.68
80502;BME280;70023;51.190;6.808;2024-01-30T05:07:34;102558.13;;;7.50;75.50
80502;BME280;70023;51.190;6.808;2024-01-30T05:12:36;102551.13;;;7.49;75.38
80502;BME280;70023;51.190;6.808;2024-01-30T05:17:38;102567.06;;;7.49;75.43
80502;BME280;70023;51.190;6.808;2024-01-30T05:22:42;102560.91;;;7.49;74.72
80502;BME280;70023;51.190;6.808;2024-01-30T05:27:45;102550.28;;;7.49;75.52
80502;BME280;70023;51.190;6.808;2024-01-30T05:32:46;102550.16;;;7.50;74.58
80502;BME280;70023;51.190;6.808;2024-01-30T05:37:50;102552.13;;;7.48;75.44
80502;BME280;70023;51.190;6.808;2024-01-30T05:42:51;102549.47;;;7.48;75.64
80502;BME280;70023;51.190;6.808;2024-01-30T05:47:53;102541.97;;;7.44;75.45
80502;BME280;70023;51.190;6.808;2024-01-30T05:52:54;102556.25;;;7.43;74.97
80502;BME280;70023;51.190;6.808;2024-01-30T05:57:55;102551.25;;;7.40;75.67
80502;BME280;70023;51.190;6.808;2024-01-30T06:02:56;102550.75;;;7.36;74.69
80502;BME280;70023;51.190;6.808;2024-01-30T06:07:57;102548.09;;;7.36;74.89
80502;BME280;70023;51.190;6.808;2024-01-30T06:12:58;102550.22;;;7.32;74.86
80502;BME280;70023;51.190;6.808;2024-01-30T06:17:59;102552.69;;;7.34;74.82
80502;BME280;70023;51.190;6.808;2024-01-30T06:23:00;102544.22;;;7.30;75.13
80502;BME280;70023;51.190;6.808;2024-01-30T06:28:01;102542.25;;;7.32;75.13
80502;BME280;70023;51.190;6.808;2024-01-30T06:33:06;102531.63;;;7.32;75.53
80502;BME280;70023;51.190;6.808;2024-01-30T06:38:07;102533.44;;;7.32;75.79
80502;BME280;70023;51.190;6.808;2024-01-30T06:43:09;102533.44;;;7.32;75.56
80502;BME280;70023;51.190;6.808;2024-01-30T06:48:13;102515.69;;;7.32;75.10
80502;BME280;70023;51.190;6.808;2024-01-30T06:53:19;102537.78;;;7.33;75.74
80502;BME280;70023;51.190;6.808;2024-01-30T06:58:20;102542.25;;;7.32;75.61
80502;BME280;70023;51.190;6.808;2024-01-30T07:03:21;102563.19;;;7.35;74.69
80502;BME280;70023;51.190;6.808;2024-01-30T07:08:22;102561.38;;;7.36;75.07
80502;BME280;70023;51.190;6.808;2024-01-30T07:13:24;102563.88;;;7.38;75.04
80502;BME280;70023;51.190;6.808;2024-01-30T07:18:25;102559.53;;;7.36;75.46
80502;BME280;70023;51.190;6.808;2024-01-30T07:23:26;102556.88;;;7.36;74.87
80502;BME280;70023;51.190;6.808;2024-01-30T07:28:29;102562.19;;;7.36;74.92
80502;BME280;70023;51.190;6.808;2024-01-30T07:33:30;102565.53;;;7.39;74.79
80502;BME280;70023;51.190;6.808;2024-01-30T07:38:31;102569.84;;;7.40;75.00
80502;BME280;70023;51.190;6.808;2024-01-30T07:43:32;102565.22;;;7.42;75.07
80502;BME280;70023;51.190;6.808;2024-01-30T07:48:33;102581.81;;;7.44;75.17
80502;BME280;70023;51.190;6.808;2024-01-30T07:53:35;102587.84;;;7.46;75.35
80502;BME280;70023;51.190;6.808;2024-01-30T07:58:36;102592.00;;;7.48;75.22
80502;BME280;70023;51.190;6.808;2024-01-30T08:03:38;102592.38;;;7.53;74.67
80502;BME280;70023;51.190;6.808;2024-01-30T08:08:41;102600.16;;;7.55;74.72
80502;BME280;70023;51.190;6.808;2024-01-30T08:13:42;102596.50;;;7.56;74.39
80502;BME280;70023;51.190;6.808;2024-01-30T08:18:44;102594.38;;;7.59;74.64
80502;BME280;70023;51.190;6.808;2024-01-30T08:23:46;102595.03;;;7.61;74.62
80502;BME280;70023;51.190;6.808;2024-01-30T08:28:47;102599.88;;;7.66;74.87
80502;BME280;70023;51.190;6.808;2024-01-30T08:33:48;102604.72;;;7.70;74.68
80502;BME280;70023;51.190;6.808;2024-01-30T08:38:49;102609.72;;;7.73;74.83
80502;BME280;70023;51.190;6.808;2024-01-30T08:43:51;102613.75;;;7.77;74.69
80502;BME280;70023;51.190;6.808;2024-01-30T08:48:52;102618.72;;;7.80;75.00
80502;BME280;70023;51.190;6.808;2024-01-30T08:53:56;102616.59;;;7.84;74.65
80502;BME280;70023;51.190;6.808;2024-01-30T08:59:00;102625.91;;;7.88;73.74
80502;BME280;70023;51.190;6.808;2024-01-30T09:04:04;102636.22;;;7.91;74.07
80502;BME280;70023;51.190;6.808;2024-01-30T09:09:05;102640.22;;;7.95;73.99
80502;BME280;70023;51.190;6.808;2024-01-30T09:14:06;102647.56;;;8.01;73.85
80502;BME280;70023;51.190;6.808;2024-01-30T09:19:07;102633.13;;;8.03;74.16
80502;BME280;70023;51.190;6.808;2024-01-30T09:24:08;102643.28;;;8.08;74.23
80502;BME280;70023;51.190;6.808;2024-01-30T09:29:09;102641.81;;;8.14;73.61
80502;BME280;70023;51.190;6.808;2024-01-30T09:34:13;102646.47;;;8.20;73.77
80502;BME280;70023;51.190;6.808;2024-01-30T09:39:14;102656.34;;;8.27;74.59
80502;BME280;70023;51.190;6.808;2024-01-30T09:44:16;102656.50;;;8.34;73.91
80502;BME280;70023;51.190;6.808;2024-01-30T09:49:18;102653.88;;;8.42;74.02
80502;BME280;70023;51.190;6.808;2024-01-30T09:54:21;102652.41;;;8.47;74.43
80502;BME280;70023;51.190;6.808;2024-01-30T09:59:23;102650.75;;;8.54;74.21
80502;BME280;70023;51.190;6.808;2024-01-30T10:04:24;102659.75;;;8.61;74.00
80502;BME280;70023;51.190;6.808;2024-01-30T10:09:25;102656.28;;;8.69;73.53
80502;BME280;70023;51.190;6.808;2024-01-30T10:14:26;102657.41;;;8.75;73.51
80502;BME280;70023;51.190;6.808;2024-01-30T10:19:27;102657.25;;;8.84;73.77
80502;BME280;70023;51.190;6.808;2024-01-30T10:24:28;102654.59;;;8.92;73.10
80502;BME280;70023;51.190;6.808;2024-01-30T10:29:33;102660.94;;;8.99;73.11
80502;BME280;70023;51.190;6.808;2024-01-30T10:34:36;102656.59;;;9.06;72.95
80502;BME280;70023;51.190;6.808;2024-01-30T10:39:38;102653.28;;;9.12;73.18
80502;BME280;70023;51.190;6.808;2024-01-30T10:49:51;102646.09;;;9.29;73.41
80502;BME280;70023;51.190;6.808;2024-01-30T10:54:54;102647.09;;;9.36;73.03
80502;BME280;70023;51.190;6.808;2024-01-30T10:59:59;102649.88;;;9.43;72.91
80502;BME280;70023;51.190;6.808;2024-01-30T11:05:08;102655.22;;;9.51;73.29
80502;BME280;70023;51.190;6.808;2024-01-30T11:10:09;102650.88;;;9.58;72.40
80502;BME280;70023;51.190;6.808;2024-01-30T11:15:18;102657.34;;;9.63;72.65
80502;BME280;70023;51.190;6.808;2024-01-30T11:20:26;102652.34;;;9.68;72.62
80502;BME280;70023;51.190;6.808;2024-01-30T11:25:32;102662.97;;;9.76;72.61
80502;BME280;70023;51.190;6.808;2024-01-30T11:30:34;102656.13;;;9.82;72.35
80502;BME280;70023;51.190;6.808;2024-01-30T11:35:36;102659.09;;;9.87;72.31
80502;BME280;70023;51.190;6.808;2024-01-30T11:40:39;102649.59;;;9.92;72.46
80502;BME280;70023;51.190;6.808;2024-01-30T11:45:40;102645.38;;;9.98;72.28
80502;BME280;70023;51.190;6.808;2024-01-30T11:50:43;102649.19;;;10.03;72.60
80502;BME280;70023;51.190;6.808;2024-01-30T11:55:49;102656.69;;;10.08;72.31
80502;BME280;70023;51.190;6.808;2024-01-30T12:00:57;102651.88;;;10.12;72.21
80502;BME280;70023;51.190;6.808;2024-01-30T12:05:58;102655.84;;;10.16;72.28
80502;BME280;70023;51.190;6.808;2024-01-30T12:11:00;102659.00;;;10.19;72.39
80502;BME280;70023;51.190;6.808;2024-01-30T12:16:05;102647.81;;;10.24;72.30
80502;BME280;70023;51.190;6.808;2024-01-30T12:21:07;102651.13;;;10.26;71.97
80502;BME280;70023;51.190;6.808;2024-01-30T12:26:08;102646.28;;;10.29;71.94
80502;BME280;70023;51.190;6.808;2024-01-30T12:31:10;102650.44;;;10.32;72.30
80502;BME280;70023;51.190;6.808;2024-01-30T12:36:11;102637.75;;;10.34;71.84
80502;BME280;70023;51.190;6.808;2024-01-30T12:41:12;102648.72;;;10.39;71.92
80502;BME280;70023;51.190;6.808;2024-01-30T12:46:18;102644.03;;;10.41;72.27
80502;BME280;70023;51.190;6.808;2024-01-30T12:51:19;102647.00;;;10.46;72.02
80502;BME280;70023;51.190;6.808;2024-01-30T12:56:20;102635.94;;;10.49;72.50
80502;BME280;70023;51.190;6.808;2024-01-30T13:01:21;102644.47;;;10.52;72.43
80502;BME280;70023;51.190;6.808;2024-01-30T13:06:23;102660.78;;;10.57;72.56
80502;BME280;70023;51.190;6.808;2024-01-30T13:11:24;102656.75;;;10.61;72.53
80502;BME280;70023;51.190;6.808;2024-01-30T13:16:25;102664.41;;;10.64;72.45
80502;BME280;70023;51.190;6.808;2024-01-30T13:21:26;102674.75;;;10.68;72.03
80502;BME280;70023;51.190;6.808;2024-01-30T13:26:28;102672.53;;;10.71;72.64
80502;BME280;70023;51.190;6.808;2024-01-30T13:31:30;102676.69;;;10.74;72.62
80502;BME280;70023;51.190;6.808;2024-01-30T13:36:32;102676.34;;;10.77;72.61
80502;BME280;70023;51.190;6.808;2024-01-30T13:41:33;102673.34;;;10.80;72.37
80502;BME280;70023;51.190;6.808;2024-01-30T13:46:34;102673.97;;;10.82;72.50
80502;BME280;70023;51.190;6.808;2024-01-30T13:51:35;102681.66;;;10.85;72.66
80502;BME280;70023;51.190;6.808;2024-01-30T13:56:36;102675.91;;;10.88;72.20
80502;BME280;70023;51.190;6.808;2024-01-30T14:01:39;102685.25;;;10.92;71.83
80502;BME280;70023;51.190;6.808;2024-01-30T14:06:41;102684.88;;;10.95;72.14
80502;BME280;70023;51.190;6.808;2024-01-30T14:11:42;102679.03;;;10.99;72.82
80502;BME280;70023;51.190;6.808;2024-01-30T14:16:43;102666.97;;;11.03;72.27
80502;BME280;70023;51.190;6.808;2024-01-30T14:21:45;102688.00;;;11.06;72.39
80502;BME280;70023;51.190;6.808;2024-01-30T14:26:46;102680.44;;;11.10;71.96
80502;BME280;70023;51.190;6.808;2024-01-30T14:31:47;102679.72;;;11.16;72.27
80502;BME280;70023;51.190;6.808;2024-01-30T14:36:48;102680.19;;;11.19;71.94
80502;BME280;70023;51.190;6.808;2024-01-30T14:41:49;102690.88;;;11.19;72.76
80502;BME280;70023;51.190;6.808;2024-01-30T14:46:50;102687.38;;;11.19;72.15
80502;BME280;70023;51.190;6.808;2024-01-30T14:51:52;102696.22;;;11.19;72.02
80502;BME280;70023;51.190;6.808;2024-01-30T14:56:53;102714.78;;;11.21;72.73
80502;BME280;70023;51.190;6.808;2024-01-30T15:01:55;102705.56;;;11.23;72.84
80502;BME280;70023;51.190;6.808;2024-01-30T15:06:56;102708.03;;;11.25;72.80
80502;BME280;70023;51.190;6.808;2024-01-30T15:12:00;102719.59;;;11.25;73.27
80502;BME280;70023;51.190;6.808;2024-01-30T15:17:04;102729.25;;;11.26;72.42
80502;BME280;70023;51.190;6.808;2024-01-30T15:22:08;102742.63;;;11.26;72.49
80502;BME280;70023;51.190;6.808;2024-01-30T15:27:09;102746.97;;;11.27;72.90
80502;BME280;70023;51.190;6.808;2024-01-30T15:32:10;102755.00;;;11.27;72.38
80502;BME280;70023;51.190;6.808;2024-01-30T15:37:11;102769.22;;;11.28;72.64
80502;BME280;70023;51.190;6.808;2024-01-30T15:42:12;102761.00;;;11.29;72.42
80502;BME280;70023;51.190;6.808;2024-01-30T15:47:13;102781.75;;;11.27;72.51
80502;BME280;70023;51.190;6.808;2024-01-30T15:52:14;102789.94;;;11.26;72.36
80502;BME280;70023;51.190;6.808;2024-01-30T15:57:17;102796.28;;;11.25;71.92
80502;BME280;70023;51.190;6.808;2024-01-30T16:02:18;102800.81;;;11.24;72.57
80502;BME280;70023;51.190;6.808;2024-01-30T16:07:20;102818.03;;;11.22;72.38
80502;BME280;70023;51.190;6.808;2024-01-30T16:12:21;102820.25;;;11.18;72.01
80502;BME280;70023;51.190;6.808;2024-01-30T16:17:23;102828.81;;;11.14;72.02
80502;BME280;70023;51.190;6.808;2024-01-30T16:22:24;102831.19;;;11.09;72.44
80502;BME280;70023;51.190;6.808;2024-01-30T16:27:25;102836.22;;;11.04;72.31
80502;BME280;70023;51.190;6.808;2024-01-30T16:32:26;102857.09;;;11.00;71.82
80502;BME280;70023;51.190;6.808;2024-01-30T16:37:31;102849.63;;;10.96;72.51
80502;BME280;70023;51.190;6.808;2024-01-30T16:42:44;102867.84;;;10.92;71.80
80502;BME280;70023;51.190;6.808;2024-01-30T16:47:45;102874.72;;;10.87;72.09
80502;BME280;70023;51.190;6.808;2024-01-30T16:52:46;102881.41;;;10.83;72.68
80502;BME280;70023;51.190;6.808;2024-01-30T16:57:48;102898.97;;;10.77;72.83
80502;BME280;70023;51.190;6.808;2024-01-30T17:02:49;102892.28;;;10.73;72.69
80502;BME280;70023;51.190;6.808;2024-01-30T17:07:50;102894.00;;;10.66;72.52
80502;BME280;70023;51.190;6.808;2024-01-30T17:12:55;102909.53;;;10.62;72.61
80502;BME280;70023;51.190;6.808;2024-01-30T17:17:56;102919.25;;;10.55;72.84
80502;BME280;70023;51.190;6.808;2024-01-30T17:22:57;102930.44;;;10.51;72.65
80502;BME280;70023;51.190;6.808;2024-01-30T17:28:00;102942.31;;;10.48;73.20
80502;BME280;70023;51.190;6.808;2024-01-30T17:33:01;102940.97;;;10.44;72.59
80502;BME280;70023;51.190;6.808;2024-01-30T17:38:03;102951.81;;;10.43;73.28
80502;BME280;70023;51.190;6.808;2024-01-30T17:43:04;102960.50;;;10.37;72.89
80502;BME280;70023;51.190;6.808;2024-01-30T17:48:06;102971.34;;;10.35;73.05
80502;BME280;70023;51.190;6.808;2024-01-30T17:53:09;102970.03;;;10.31;72.97
80502;BME280;70023;51.190;6.808;2024-01-30T17:58:11;102986.06;;;10.31;72.61
80502;BME280;70023;51.190;6.808;2024-01-30T18:03:12;102995.06;;;10.30;73.07
80502;BME280;70023;51.190;6.808;2024-01-30T18:08:13;103003.56;;;10.26;73.04
80502;BME280;70023;51.190;6.808;2024-01-30T18:13:14;103008.91;;;10.26;72.96
80502;BME280;70023;51.190;6.808;2024-01-30T18:18:17;103018.75;;;10.25;72.61
80502;BME280;70023;51.190;6.808;2024-01-30T18:23:18;103016.56;;;10.21;73.04
80502;BME280;70023;51.190;6.808;2024-01-30T18:28:20;103013.06;;;10.20;73.05
80502;BME280;70023;51.190;6.808;2024-01-30T18:33:21;103016.75;;;10.19;73.01
80502;BME280;70023;51.190;6.808;2024-01-30T18:38:26;103020.75;;;10.15;73.10
80502;BME280;70023;51.190;6.808;2024-01-30T18:43:27;103035.09;;;10.14;72.83
80502;BME280;70023;51.190;6.808;2024-01-30T18:48:28;103034.56;;;10.11;73.07
80502;BME280;70023;51.190;6.808;2024-01-30T18:53:29;103046.56;;;10.07;73.24
80502;BME280;70023;51.190;6.808;2024-01-30T18:58:30;103057.25;;;10.07;73.22
80502;BME280;70023;51.190;6.808;2024-01-30T19:03:31;103055.91;;;10.02;73.09
80502;BME280;70023;51.190;6.808;2024-01-30T19:08:32;103066.72;;;10.01;73.23
80502;BME280;70023;51.190;6.808;2024-01-30T19:13:33;103063.72;;;9.96;73.45
80502;BME280;70023;51.190;6.808;2024-01-30T19:18:35;103059.72;;;9.92;73.29
80502;BME280;70023;51.190;6.808;2024-01-30T19:23:36;103060.03;;;9.89;73.24
80502;BME280;70023;51.190;6.808;2024-01-30T19:28:37;103064.88;;;9.85;73.57
80502;BME280;70023;51.190;6.808;2024-01-30T19:33:38;103063.84;;;9.86;73.48
80502;BME280;70023;51.190;6.808;2024-01-30T19:38:39;103070.53;;;9.82;73.60
80502;BME280;70023;51.190;6.808;2024-01-30T19:43:41;103081.69;;;9.78;73.72
80502;BME280;70023;51.190;6.808;2024-01-30T19:48:42;103087.16;;;9.76;73.31
80502;BME280;70023;51.190;6.808;2024-01-30T19:53:43;103093.00;;;9.72;73.49
80502;BME280;70023;51.190;6.808;2024-01-30T19:58:44;103107.16;;;9.72;73.50
80502;BME280;70023;51.190;6.808;2024-01-30T20:03:46;103110.00;;;9.71;73.72
80502;BME280;70023;51.190;6.808;2024-01-30T20:08:47;103115.97;;;9.65;73.70
80502;BME280;70023;51.190;6.808;2024-01-30T20:13:48;103117.13;;;9.62;73.80
80502;BME280;70023;51.190;6.808;2024-01-30T20:18:49;103125.13;;;9.62;73.44
80502;BME280;70023;51.190;6.808;2024-01-30T20:23:50;103132.78;;;9.57;73.94
80502;BME280;70023;51.190;6.808;2024-01-30T20:28:51;103128.75;;;9.53;73.45
80502;BME280;70023;51.190;6.808;2024-01-30T20:33:55;103144.09;;;9.51;73.77
80502;BME280;70023;51.190;6.808;2024-01-30T20:38:56;103145.06;;;9.50;73.72
80502;BME280;70023;51.190;6.808;2024-01-30T20:43:57;103140.22;;;9.46;74.17
80502;BME280;70023;51.190;6.808;2024-01-30T20:48:58;103149.66;;;9.40;73.55
80502;BME280;70023;51.190;6.808;2024-01-30T20:53:59;103139.16;;;9.39;73.87
80502;BME280;70023;51.190;6.808;2024-01-30T20:59:00;103155.66;;;9.34;74.19
80502;BME280;70023;51.190;6.808;2024-01-30T21:04:02;103166.31;;;9.34;74.00
80502;BME280;70023;51.190;6.808;2024-01-30T21:09:03;103160.13;;;9.33;73.85
80502;BME280;70023;51.190;6.808;2024-01-30T21:14:06;103160.59;;;9.29;73.65
80502;BME280;70023;51.190;6.808;2024-01-30T21:19:07;103158.25;;;9.26;74.38
80502;BME280;70023;51.190;6.808;2024-01-30T21:24:09;103162.22;;;9.22;73.74
80502;BME280;70023;51.190;6.808;2024-01-30T21:29:10;103160.72;;;9.19;73.86
80502;BME280;70023;51.190;6.808;2024-01-30T21:34:12;103168.03;;;9.17;74.12
80502;BME280;70023;51.190;6.808;2024-01-30T21:39:13;103161.31;;;9.13;74.16
80502;BME280;70023;51.190;6.808;2024-01-30T21:44:14;103168.13;;;9.08;74.44
80502;BME280;70023;51.190;6.808;2024-01-30T21:49:15;103172.44;;;9.09;74.35
80502;BME280;70023;51.190;6.808;2024-01-30T21:54:16;103170.41;;;9.03;74.02
80502;BME280;70023;51.190;6.808;2024-01-30T21:59:18;103176.03;;;9.00;73.90
80502;BME280;70023;51.190;6.808;2024-01-30T22:04:19;103183.34;;;8.98;74.02
80502;BME280;70023;51.190;6.808;2024-01-30T22:09:23;103186.16;;;8.96;74.34
80502;BME280;70023;51.190;6.808;2024-01-30T22:14:25;103181.16;;;8.93;74.08
80502;BME280;70023;51.190;6.808;2024-01-30T22:19:26;103184.13;;;8.90;74.50
80502;BME280;70023;51.190;6.808;2024-01-30T22:24:27;103195.06;;;8.87;74.07
80502;BME280;70023;51.190;6.808;2024-01-30T22:29:28;103198.75;;;8.86;74.40
80502;BME280;70023;51.190;6.808;2024-01-30T22:34:29;103194.69;;;8.82;74.13
80502;BME280;70023;51.190;6.808;2024-01-30T22:39:30;103204.00;;;8.78;74.88
80502;BME280;70023;51.190;6.808;2024-01-30T22:44:31;103207.63;;;8.77;74.94
80502;BME280;70023;51.190;6.808;2024-01-30T22:49:38;103222.09;;;8.75;74.28
80502;BME280;70023;51.190;6.808;2024-01-30T22:54:42;103218.06;;;8.71;74.82
80502;BME280;70023;51.190;6.808;2024-01-30T22:59:43;103221.69;;;8.69;74.48
80502;BME280;70023;51.190;6.808;2024-01-30T23:04:44;103227.47;;;8.65;74.27
80502;BME280;70023;51.190;6.808;2024-01-30T23:09:45;103230.47;;;8.62;74.47
80502;BME280;70023;51.190;6.808;2024-01-30T23:14:47;103236.22;;;8.57;74.27
80502;BME280;70023;51.190;6.808;2024-01-30T23:19:49;103237.38;;;8.55;74.96
80502;BME280;70023;51.190;6.808;2024-01-30T23:24:50;103251.13;;;8.50;75.17
80502;BME280;70023;51.190;6.808;2024-01-30T23:29:52;103247.47;;;8.51;74.75
80502;BME280;70023;51.190;6.808;2024-01-30T23:34:53;103257.75;;;8.46;75.14
80502;BME280;70023;51.190;6.808;2024-01-30T23:39:54;103255.25;;;8.45;75.00
80502;BME280;70023;51.190;6.808;2024-01-30T23:44:55;103257.22;;;8.43;75.19
80502;BME280;70023;51.190;6.808;2024-01-30T23:49:56;103248.66;;;8.39;75.50
80502;BME280;70023;51.190;6.808;2024-01-30T23:54:57;103242.50;;;8.39;74.98
80502;BME280;70023;51.190;6.808;2024-01-30T23:59:58;103234.81;;;8.36;75.42
